sensor_id;sensor_type;location;lat;lon;timestamp;P1;durP1;ratioP1;P2;durP2;ratioP2
15393;SDS011;7795;47.986;11.868;2022-12-07T00:01:29;11.03;;;8.23;;
15393;SDS011;7795;47.986;11.868;2022-12-07T00:03:57;9.70;;;7.03;;
15393;SDS011;7795;47.986;11.868;2022-12-07T00:06:30;13.20;;;6.83;;
15393;SDS011;7795;47.986;11.868;2022-12-07T00:08:56;11.20;;;8.27;;
15393;SDS011;7795;47.986;11.868;2022-12-07T00:11:22;11.03;;;8.80;;
15393;SDS011;7795;47.986;11.868;2022-12-07T00:13:51;12.53;;;8.73;;
15393;SDS011;7795;47.986;11.868;2022-12-07T00:16:18;12.10;;;8.43;;
15393;SDS011;7795;47.986;11.868;2022-12-07T00:18:46;11.07;;;8.37;;
15393;SDS011;7795;47.986;11.868;2022-12-07T00:21:13;12.00;;;8.70;;
15393;SDS011;7795;47.986;11.868;2022-12-07T00:23:41;10.40;;;7.90;;
15393;SDS011;7795;47.986;11.868;2022-12-07T00:26:08;10.60;;;7.83;;
15393;SDS011;7795;47.986;11.868;2022-12-07T00:28:36;11.70;;;8.93;;
15393;SDS011;7795;47.986;11.868;2022-12-07T00:31:03;11.20;;;8.33;;
15393;SDS011;7795;47.986;11.868;2022-12-07T00:33:29;10.43;;;8.63;;
15393;SDS011;7795;47.986;11.868;2022-12-07T00:35:57;11.13;;;8.30;;
15393;SDS011;7795;47.986;11.868;2022-12-07T00:38:24;10.53;;;8.07;;
15393;SDS011;7795;47.986;11.868;2022-12-07T00:40:55;11.03;;;8.30;;
15393;SDS011;7795;47.986;11.868;2022-12-07T00:43:21;9.73;;;8.10;;
15393;SDS011;7795;47.986;11.868;2022-12-07T00:45:47;8.83;;;7.53;;
15393;SDS011;7795;47.986;11.868;2022-12-07T00:48:13;10.13;;;8.17;;
15393;SDS011;7795;47.986;11.868;2022-12-07T00:50:38;10.70;;;8.33;;
15393;SDS011;7795;47.986;11.868;2022-12-07T00:53:05;11.17;;;8.73;;
15393;SDS011;7795;47.986;11.868;2022-12-07T00:55:32;9.40;;;8.37;;
15393;SDS011;7795;47.986;11.868;2022-12-07T00:57:58;12.73;;;8.23;;
15393;SDS011;7795;47.986;11.868;2022-12-07T01:00:24;9.50;;;8.00;;
15393;SDS011;7795;47.986;11.868;2022-12-07T01:02:49;10.10;;;8.30;;
15393;SDS011;7795;47.986;11.868;2022-12-07T01:05:15;10.13;;;7.70;;
15393;SDS011;7795;47.986;11.868;2022-12-07T01:07:41;9.63;;;7.50;;
15393;SDS011;7795;47.986;11.868;2022-12-07T01:10:08;11.27;;;8.50;;
15393;SDS011;7795;47.986;11.868;2022-12-07T01:12:35;9.87;;;8.27;;
15393;SDS011;7795;47.986;11.868;2022-12-07T01:15:00;11.60;;;8.43;;
15393;SDS011;7795;47.986;11.868;2022-12-07T01:17:26;9.23;;;7.57;;
15393;SDS011;7795;47.986;11.868;2022-12-07T01:19:53;10.50;;;8.70;;
15393;SDS011;7795;47.986;11.868;2022-12-07T01:22:19;9.50;;;7.60;;
15393;SDS011;7795;47.986;11.868;2022-12-07T01:24:44;9.73;;;7.77;;
15393;SDS011;7795;47.986;11.868;2022-12-07T01:27:13;9.27;;;8.27;;
15393;SDS011;7795;47.986;11.868;2022-12-07T01:29:39;9.10;;;7.73;;
15393;SDS011;7795;47.986;11.868;2022-12-07T01:32:04;10.17;;;8.07;;
15393;SDS011;7795;47.986;11.868;2022-12-07T01:34:30;8.90;;;6.67;;
15393;SDS011;7795;47.986;11.868;2022-12-07T01:36:56;10.40;;;7.47;;
15393;SDS011;7795;47.986;11.868;2022-12-07T01:39:22;9.00;;;7.63;;
15393;SDS011;7795;47.986;11.868;2022-12-07T01:41:48;10.10;;;8.10;;
15393;SDS011;7795;47.986;11.868;2022-12-07T01:44:20;8.67;;;7.20;;
15393;SDS011;7795;47.986;11.868;2022-12-07T01:46:48;9.67;;;8.43;;
15393;SDS011;7795;47.986;11.868;2022-12-07T01:49:16;7.57;;;6.50;;
15393;SDS011;7795;47.986;11.868;2022-12-07T01:51:47;9.40;;;6.87;;
15393;SDS011;7795;47.986;11.868;2022-12-07T01:54:16;11.60;;;8.63;;
15393;SDS011;7795;47.986;11.868;2022-12-07T01:56:44;10.53;;;7.30;;
15393;SDS011;7795;47.986;11.868;2022-12-07T01:59:14;10.27;;;7.87;;
15393;SDS011;7795;47.986;11.868;2022-12-07T02:01:43;10.83;;;8.20;;
15393;SDS011;7795;47.986;11.868;2022-12-07T02:04:09;8.57;;;7.47;;
15393;SDS011;7795;47.986;11.868;2022-12-07T02:06:36;10.70;;;7.63;;
15393;SDS011;7795;47.986;11.868;2022-12-07T02:09:03;8.53;;;6.87;;
15393;SDS011;7795;47.986;11.868;2022-12-07T02:11:29;10.47;;;7.03;;
15393;SDS011;7795;47.986;11.868;2022-12-07T02:13:55;8.60;;;7.53;;
15393;SDS011;7795;47.986;11.868;2022-12-07T02:16:25;8.83;;;7.30;;
15393;SDS011;7795;47.986;11.868;2022-12-07T02:19:02;9.50;;;7.63;;
15393;SDS011;7795;47.986;11.868;2022-12-07T02:21:50;9.03;;;7.57;;
15393;SDS011;7795;47.986;11.868;2022-12-07T02:24:27;8.70;;;7.10;;
15393;SDS011;7795;47.986;11.868;2022-12-07T02:27:07;9.23;;;7.87;;
15393;SDS011;7795;47.986;11.868;2022-12-07T02:29:44;7.73;;;6.60;;
15393;SDS011;7795;47.986;11.868;2022-12-07T02:32:15;8.30;;;6.87;;
15393;SDS011;7795;47.986;11.868;2022-12-07T02:34:49;8.03;;;6.63;;
15393;SDS011;7795;47.986;11.868;2022-12-07T02:37:22;8.87;;;7.30;;
15393;SDS011;7795;47.986;11.868;2022-12-07T02:39:57;8.00;;;6.97;;
15393;SDS011;7795;47.986;11.868;2022-12-07T02:42:30;8.47;;;7.23;;
15393;SDS011;7795;47.986;11.868;2022-12-07T02:45:01;6.20;;;5.57;;
15393;SDS011;7795;47.986;11.868;2022-12-07T02:47:30;7.80;;;6.43;;
15393;SDS011;7795;47.986;11.868;2022-12-07T02:49:58;7.00;;;6.20;;
15393;SDS011;7795;47.986;11.868;2022-12-07T02:52:25;8.17;;;6.47;;
15393;SDS011;7795;47.986;11.868;2022-12-07T02:54:50;7.33;;;6.50;;
15393;SDS011;7795;47.986;11.868;2022-12-07T02:57:26;8.63;;;7.03;;
15393;SDS011;7795;47.986;11.868;2022-12-07T03:00:07;8.07;;;7.20;;
15393;SDS011;7795;47.986;11.868;2022-12-07T03:02:38;8.87;;;6.27;;
15393;SDS011;7795;47.986;11.868;2022-12-07T03:05:25;8.23;;;6.60;;
15393;SDS011;7795;47.986;11.868;2022-12-07T03:08:11;6.60;;;5.90;;
15393;SDS011;7795;47.986;11.868;2022-12-07T03:10:44;7.33;;;6.13;;
15393;SDS011;7795;47.986;11.868;2022-12-07T03:13:19;6.77;;;5.83;;
15393;SDS011;7795;47.986;11.868;2022-12-07T03:15:51;6.80;;;6.10;;
15393;SDS011;7795;47.986;11.868;2022-12-07T03:18:23;6.77;;;5.57;;
15393;SDS011;7795;47.986;11.868;2022-12-07T03:20:51;6.83;;;5.90;;
15393;SDS011;7795;47.986;11.868;2022-12-07T03:23:21;6.90;;;6.20;;
15393;SDS011;7795;47.986;11.868;2022-12-07T03:25:51;7.43;;;5.43;;
15393;SDS011;7795;47.986;11.868;2022-12-07T03:28:19;6.50;;;5.63;;
15393;SDS011;7795;47.986;11.868;2022-12-07T03:30:49;7.80;;;6.67;;
15393;SDS011;7795;47.986;11.868;2022-12-07T03:33:21;6.97;;;5.63;;
15393;SDS011;7795;47.986;11.868;2022-12-07T03:35:52;6.70;;;6.00;;
15393;SDS011;7795;47.986;11.868;2022-12-07T03:38:24;7.60;;;5.90;;
15393;SDS011;7795;47.986;11.868;2022-12-07T03:40:58;6.67;;;5.97;;
15393;SDS011;7795;47.986;11.868;2022-12-07T03:43:27;6.80;;;6.07;;
15393;SDS011;7795;47.986;11.868;2022-12-07T03:45:57;7.13;;;6.43;;
15393;SDS011;7795;47.986;11.868;2022-12-07T03:48:31;8.30;;;6.83;;
15393;SDS011;7795;47.986;11.868;2022-12-07T03:51:01;9.10;;;6.43;;
15393;SDS011;7795;47.986;11.868;2022-12-07T03:53:36;6.53;;;5.67;;
15393;SDS011;7795;47.986;11.868;2022-12-07T03:56:05;7.43;;;6.60;;
15393;SDS011;7795;47.986;11.868;2022-12-07T03:58:33;7.10;;;6.40;;
15393;SDS011;7795;47.986;11.868;2022-12-07T04:01:01;7.13;;;6.00;;
15393;SDS011;7795;47.986;11.868;2022-12-07T04:03:27;8.57;;;6.83;;
15393;SDS011;7795;47.986;11.868;2022-12-07T04:05:52;6.73;;;5.80;;
15393;SDS011;7795;47.986;11.868;2022-12-07T04:08:19;5.77;;;5.17;;
15393;SDS011;7795;47.986;11.868;2022-12-07T04:10:44;7.27;;;5.83;;
15393;SDS011;7795;47.986;11.868;2022-12-07T04:13:10;7.63;;;5.93;;
15393;SDS011;7795;47.986;11.868;2022-12-07T04:15:36;6.27;;;5.57;;
15393;SDS011;7795;47.986;11.868;2022-12-07T04:18:03;6.50;;;5.40;;
15393;SDS011;7795;47.986;11.868;2022-12-07T04:20:29;6.30;;;5.37;;
15393;SDS011;7795;47.986;11.868;2022-12-07T04:22:54;7.10;;;6.30;;
15393;SDS011;7795;47.986;11.868;2022-12-07T04:25:20;5.90;;;5.17;;
15393;SDS011;7795;47.986;11.868;2022-12-07T04:27:46;6.70;;;6.03;;
15393;SDS011;7795;47.986;11.868;2022-12-07T04:30:12;6.63;;;5.77;;
15393;SDS011;7795;47.986;11.868;2022-12-07T04:32:38;6.57;;;5.70;;
15393;SDS011;7795;47.986;11.868;2022-12-07T04:35:05;6.87;;;5.77;;
15393;SDS011;7795;47.986;11.868;2022-12-07T04:37:32;6.87;;;5.90;;
15393;SDS011;7795;47.986;11.868;2022-12-07T04:39:57;7.00;;;5.60;;
15393;SDS011;7795;47.986;11.868;2022-12-07T04:42:23;6.13;;;5.27;;
15393;SDS011;7795;47.986;11.868;2022-12-07T04:44:49;7.23;;;5.90;;
15393;SDS011;7795;47.986;11.868;2022-12-07T04:47:15;6.10;;;5.50;;
15393;SDS011;7795;47.986;11.868;2022-12-07T04:49:41;6.43;;;5.73;;
15393;SDS011;7795;47.986;11.868;2022-12-07T04:52:08;7.00;;;6.00;;
15393;SDS011;7795;47.986;11.868;2022-12-07T04:54:34;6.10;;;5.33;;
15393;SDS011;7795;47.986;11.868;2022-12-07T04:57:00;5.60;;;4.70;;
15393;SDS011;7795;47.986;11.868;2022-12-07T04:59:25;6.80;;;5.20;;
15393;SDS011;7795;47.986;11.868;2022-12-07T05:01:51;6.00;;;5.40;;
15393;SDS011;7795;47.986;11.868;2022-12-07T05:04:17;6.53;;;5.93;;
15393;SDS011;7795;47.986;11.868;2022-12-07T05:06:43;6.93;;;6.00;;
15393;SDS011;7795;47.986;11.868;2022-12-07T05:09:10;6.70;;;5.97;;
15393;SDS011;7795;47.986;11.868;2022-12-07T05:11:36;6.13;;;5.53;;
15393;SDS011;7795;47.986;11.868;2022-12-07T05:14:06;5.20;;;4.70;;
15393;SDS011;7795;47.986;11.868;2022-12-07T05:16:34;5.67;;;5.07;;
15393;SDS011;7795;47.986;11.868;2022-12-07T05:19:00;5.90;;;5.30;;
15393;SDS011;7795;47.986;11.868;2022-12-07T05:21:25;6.80;;;5.27;;
15393;SDS011;7795;47.986;11.868;2022-12-07T05:23:51;7.27;;;6.43;;
15393;SDS011;7795;47.986;11.868;2022-12-07T05:26:18;7.60;;;6.20;;
15393;SDS011;7795;47.986;11.868;2022-12-07T05:28:44;8.30;;;7.47;;
15393;SDS011;7795;47.986;11.868;2022-12-07T05:31:10;9.70;;;7.13;;
15393;SDS011;7795;47.986;11.868;2022-12-07T05:33:36;9.20;;;7.23;;
15393;SDS011;7795;47.986;11.868;2022-12-07T05:36:01;7.87;;;6.20;;
15393;SDS011;7795;47.986;11.868;2022-12-07T05:38:30;9.40;;;6.90;;
15393;SDS011;7795;47.986;11.868;2022-12-07T05:40:59;9.53;;;7.53;;
15393;SDS011;7795;47.986;11.868;2022-12-07T05:43:27;8.87;;;7.40;;
15393;SDS011;7795;47.986;11.868;2022-12-07T05:45:53;9.53;;;6.67;;
15393;SDS011;7795;47.986;11.868;2022-12-07T05:48:19;8.73;;;6.80;;
15393;SDS011;7795;47.986;11.868;2022-12-07T05:50:47;9.60;;;7.17;;
15393;SDS011;7795;47.986;11.868;2022-12-07T05:53:13;8.57;;;7.27;;
15393;SDS011;7795;47.986;11.868;2022-12-07T05:55:38;9.07;;;6.57;;
15393;SDS011;7795;47.986;11.868;2022-12-07T05:58:04;8.80;;;7.80;;
15393;SDS011;7795;47.986;11.868;2022-12-07T06:00:50;8.90;;;6.43;;
15393;SDS011;7795;47.986;11.868;2022-12-07T06:03:15;8.37;;;6.40;;
15393;SDS011;7795;47.986;11.868;2022-12-07T06:05:41;9.87;;;6.87;;
15393;SDS011;7795;47.986;11.868;2022-12-07T06:08:07;7.70;;;6.27;;
15393;SDS011;7795;47.986;11.868;2022-12-07T06:10:33;9.47;;;7.07;;
15393;SDS011;7795;47.986;11.868;2022-12-07T06:12:58;8.50;;;7.03;;
15393;SDS011;7795;47.986;11.868;2022-12-07T06:15:24;9.70;;;7.27;;
15393;SDS011;7795;47.986;11.868;2022-12-07T06:17:51;7.33;;;6.00;;
15393;SDS011;7795;47.986;11.868;2022-12-07T06:20:17;7.53;;;6.43;;
15393;SDS011;7795;47.986;11.868;2022-12-07T06:22:43;10.13;;;6.63;;
15393;SDS011;7795;47.986;11.868;2022-12-07T06:25:08;6.67;;;5.93;;
15393;SDS011;7795;47.986;11.868;2022-12-07T06:27:34;9.03;;;6.87;;
15393;SDS011;7795;47.986;11.868;2022-12-07T06:30:00;7.43;;;5.87;;
15393;SDS011;7795;47.986;11.868;2022-12-07T06:32:31;7.77;;;6.10;;
15393;SDS011;7795;47.986;11.868;2022-12-07T06:34:58;7.10;;;6.00;;
15393;SDS011;7795;47.986;11.868;2022-12-07T06:37:24;7.13;;;6.03;;
15393;SDS011;7795;47.986;11.868;2022-12-07T06:39:50;8.10;;;6.57;;
15393;SDS011;7795;47.986;11.868;2022-12-07T06:42:16;8.83;;;6.67;;
15393;SDS011;7795;47.986;11.868;2022-12-07T06:44:42;7.67;;;6.80;;
15393;SDS011;7795;47.986;11.868;2022-12-07T06:47:07;6.97;;;5.93;;
15393;SDS011;7795;47.986;11.868;2022-12-07T06:49:34;9.27;;;6.90;;
15393;SDS011;7795;47.986;11.868;2022-12-07T06:52:01;8.13;;;7.00;;
15393;SDS011;7795;47.986;11.868;2022-12-07T06:54:27;7.93;;;6.70;;
15393;SDS011;7795;47.986;11.868;2022-12-07T06:56:55;7.70;;;6.27;;
15393;SDS011;7795;47.986;11.868;2022-12-07T06:59:21;9.03;;;7.23;;
15393;SDS011;7795;47.986;11.868;2022-12-07T07:01:46;9.00;;;7.60;;
15393;SDS011;7795;47.986;11.868;2022-12-07T07:04:12;8.20;;;7.00;;
15393;SDS011;7795;47.986;11.868;2022-12-07T07:06:38;8.30;;;7.33;;
15393;SDS011;7795;47.986;11.868;2022-12-07T07:09:05;14.90;;;11.80;;
15393;SDS011;7795;47.986;11.868;2022-12-07T07:11:31;10.53;;;9.20;;
15393;SDS011;7795;47.986;11.868;2022-12-07T07:13:56;11.43;;;9.30;;
15393;SDS011;7795;47.986;11.868;2022-12-07T07:16:27;9.50;;;8.13;;
15393;SDS011;7795;47.986;11.868;2022-12-07T07:18:52;9.93;;;7.87;;
15393;SDS011;7795;47.986;11.868;2022-12-07T07:21:18;10.47;;;9.20;;
15393;SDS011;7795;47.986;11.868;2022-12-07T07:23:44;12.23;;;9.73;;
15393;SDS011;7795;47.986;11.868;2022-12-07T07:26:11;17.10;;;10.67;;
15393;SDS011;7795;47.986;11.868;2022-12-07T07:28:37;9.17;;;7.97;;
15393;SDS011;7795;47.986;11.868;2022-12-07T07:31:03;8.30;;;6.87;;
15393;SDS011;7795;47.986;11.868;2022-12-07T07:33:29;9.47;;;7.33;;
15393;SDS011;7795;47.986;11.868;2022-12-07T07:35:54;9.87;;;8.03;;
15393;SDS011;7795;47.986;11.868;2022-12-07T07:38:20;7.70;;;6.53;;
15393;SDS011;7795;47.986;11.868;2022-12-07T07:40:46;8.47;;;6.93;;
15393;SDS011;7795;47.986;11.868;2022-12-07T07:43:13;6.33;;;5.73;;
15393;SDS011;7795;47.986;11.868;2022-12-07T07:45:39;9.07;;;7.37;;
15393;SDS011;7795;47.986;11.868;2022-12-07T07:48:05;9.57;;;7.23;;
15393;SDS011;7795;47.986;11.868;2022-12-07T07:50:31;11.50;;;8.03;;
15393;SDS011;7795;47.986;11.868;2022-12-07T07:52:57;9.23;;;8.10;;
15393;SDS011;7795;47.986;11.868;2022-12-07T07:55:23;10.53;;;8.63;;
15393;SDS011;7795;47.986;11.868;2022-12-07T07:57:49;13.00;;;9.10;;
15393;SDS011;7795;47.986;11.868;2022-12-07T08:00:16;11.87;;;8.63;;
15393;SDS011;7795;47.986;11.868;2022-12-07T08:02:43;14.33;;;10.73;;
15393;SDS011;7795;47.986;11.868;2022-12-07T08:05:09;9.63;;;8.57;;
15393;SDS011;7795;47.986;11.868;2022-12-07T08:07:35;14.13;;;11.00;;
15393;SDS011;7795;47.986;11.868;2022-12-07T08:10:01;15.20;;;11.20;;
15393;SDS011;7795;47.986;11.868;2022-12-07T08:12:28;14.33;;;11.03;;
15393;SDS011;7795;47.986;11.868;2022-12-07T08:14:53;12.50;;;10.03;;
15393;SDS011;7795;47.986;11.868;2022-12-07T08:17:20;11.47;;;9.83;;
15393;SDS011;7795;47.986;11.868;2022-12-07T08:19:46;11.53;;;10.30;;
15393;SDS011;7795;47.986;11.868;2022-12-07T08:22:12;10.53;;;9.23;;
15393;SDS011;7795;47.986;11.868;2022-12-07T08:24:38;10.30;;;8.37;;
15393;SDS011;7795;47.986;11.868;2022-12-07T08:27:03;8.50;;;7.60;;
15393;SDS011;7795;47.986;11.868;2022-12-07T08:29:29;7.57;;;6.87;;
15393;SDS011;7795;47.986;11.868;2022-12-07T08:31:55;8.30;;;6.90;;
15393;SDS011;7795;47.986;11.868;2022-12-07T08:34:22;6.83;;;5.80;;
15393;SDS011;7795;47.986;11.868;2022-12-07T08:36:48;7.00;;;6.30;;
15393;SDS011;7795;47.986;11.868;2022-12-07T08:39:13;8.43;;;6.77;;
15393;SDS011;7795;47.986;11.868;2022-12-07T08:41:39;7.23;;;6.43;;
15393;SDS011;7795;47.986;11.868;2022-12-07T08:44:05;8.07;;;6.33;;
15393;SDS011;7795;47.986;11.868;2022-12-07T08:46:31;6.67;;;5.97;;
15393;SDS011;7795;47.986;11.868;2022-12-07T08:49:02;6.47;;;5.73;;
15393;SDS011;7795;47.986;11.868;2022-12-07T08:51:34;7.87;;;6.40;;
15393;SDS011;7795;47.986;11.868;2022-12-07T08:54:00;6.53;;;5.93;;
15393;SDS011;7795;47.986;11.868;2022-12-07T08:56:29;7.67;;;5.87;;
15393;SDS011;7795;47.986;11.868;2022-12-07T08:58:54;10.00;;;7.50;;
15393;SDS011;7795;47.986;11.868;2022-12-07T09:01:20;8.13;;;7.23;;
15393;SDS011;7795;47.986;11.868;2022-12-07T09:03:46;8.77;;;7.33;;
15393;SDS011;7795;47.986;11.868;2022-12-07T09:06:12;8.80;;;7.43;;
15393;SDS011;7795;47.986;11.868;2022-12-07T09:08:39;8.03;;;6.63;;
15393;SDS011;7795;47.986;11.868;2022-12-07T09:11:08;8.07;;;6.37;;
15393;SDS011;7795;47.986;11.868;2022-12-07T09:13:34;8.20;;;6.27;;
15393;SDS011;7795;47.986;11.868;2022-12-07T09:16:00;7.63;;;6.43;;
15393;SDS011;7795;47.986;11.868;2022-12-07T09:18:26;8.80;;;7.20;;
15393;SDS011;7795;47.986;11.868;2022-12-07T09:20:51;7.73;;;6.93;;
15393;SDS011;7795;47.986;11.868;2022-12-07T09:23:17;7.77;;;6.40;;
15393;SDS011;7795;47.986;11.868;2022-12-07T09:25:44;7.13;;;6.33;;
15393;SDS011;7795;47.986;11.868;2022-12-07T09:28:10;7.53;;;6.67;;
15393;SDS011;7795;47.986;11.868;2022-12-07T09:30:36;7.67;;;6.30;;
15393;SDS011;7795;47.986;11.868;2022-12-07T09:33:02;7.60;;;5.97;;
15393;SDS011;7795;47.986;11.868;2022-12-07T09:35:27;7.63;;;6.83;;
15393;SDS011;7795;47.986;11.868;2022-12-07T09:37:53;7.23;;;6.47;;
15393;SDS011;7795;47.986;11.868;2022-12-07T09:40:19;8.53;;;7.43;;
15393;SDS011;7795;47.986;11.868;2022-12-07T09:42:49;7.97;;;7.17;;
15393;SDS011;7795;47.986;11.868;2022-12-07T09:45:17;7.60;;;6.70;;
15393;SDS011;7795;47.986;11.868;2022-12-07T09:47:46;8.20;;;6.63;;
15393;SDS011;7795;47.986;11.868;2022-12-07T09:50:13;7.47;;;6.67;;
15393;SDS011;7795;47.986;11.868;2022-12-07T09:52:41;10.23;;;7.70;;
15393;SDS011;7795;47.986;11.868;2022-12-07T09:55:10;8.93;;;7.90;;
15393;SDS011;7795;47.986;11.868;2022-12-07T09:57:38;8.80;;;7.90;;
15393;SDS011;7795;47.986;11.868;2022-12-07T10:00:06;7.90;;;6.70;;
15393;SDS011;7795;47.986;11.868;2022-12-07T10:02:38;7.20;;;6.50;;
15393;SDS011;7795;47.986;11.868;2022-12-07T10:05:07;8.30;;;6.53;;
15393;SDS011;7795;47.986;11.868;2022-12-07T10:07:38;7.90;;;7.10;;
15393;SDS011;7795;47.986;11.868;2022-12-07T10:10:04;7.20;;;6.50;;
15393;SDS011;7795;47.986;11.868;2022-12-07T10:12:50;7.73;;;6.93;;
15393;SDS011;7795;47.986;11.868;2022-12-07T10:15:20;7.00;;;6.33;;
15393;SDS011;7795;47.986;11.868;2022-12-07T10:17:47;6.90;;;6.20;;
15393;SDS011;7795;47.986;11.868;2022-12-07T10:20:16;7.70;;;6.90;;
15393;SDS011;7795;47.986;11.868;2022-12-07T10:22:53;7.33;;;6.37;;
15393;SDS011;7795;47.986;11.868;2022-12-07T10:25:22;6.73;;;6.03;;
15393;SDS011;7795;47.986;11.868;2022-12-07T10:27:56;7.77;;;7.00;;
15393;SDS011;7795;47.986;11.868;2022-12-07T10:30:25;8.30;;;6.70;;
15393;SDS011;7795;47.986;11.868;2022-12-07T10:32:51;6.90;;;6.20;;
15393;SDS011;7795;47.986;11.868;2022-12-07T10:35:21;7.87;;;7.03;;
15393;SDS011;7795;47.986;11.868;2022-12-07T10:37:49;8.70;;;7.80;;
15393;SDS011;7795;47.986;11.868;2022-12-07T10:40:26;7.90;;;6.80;;
15393;SDS011;7795;47.986;11.868;2022-12-07T10:43:00;8.47;;;7.57;;
15393;SDS011;7795;47.986;11.868;2022-12-07T10:45:29;7.37;;;6.60;;
15393;SDS011;7795;47.986;11.868;2022-12-07T10:47:56;6.57;;;5.87;;
15393;SDS011;7795;47.986;11.868;2022-12-07T10:50:29;8.50;;;7.70;;
15393;SDS011;7795;47.986;11.868;2022-12-07T10:53:14;7.37;;;6.50;;
15393;SDS011;7795;47.986;11.868;2022-12-07T10:56:10;7.03;;;6.33;;
15393;SDS011;7795;47.986;11.868;2022-12-07T10:59:06;7.00;;;6.30;;
15393;SDS011;7795;47.986;11.868;2022-12-07T11:01:45;7.60;;;6.80;;
15393;SDS011;7795;47.986;11.868;2022-12-07T11:04:18;7.90;;;6.67;;
15393;SDS011;7795;47.986;11.868;2022-12-07T11:06:54;8.03;;;6.27;;
15393;SDS011;7795;47.986;11.868;2022-12-07T11:09:31;8.43;;;7.53;;
15393;SDS011;7795;47.986;11.868;2022-12-07T11:12:09;8.70;;;7.80;;
15393;SDS011;7795;47.986;11.868;2022-12-07T11:14:44;8.73;;;7.03;;
15393;SDS011;7795;47.986;11.868;2022-12-07T11:17:20;6.93;;;6.23;;
15393;SDS011;7795;47.986;11.868;2022-12-07T11:20:00;6.80;;;5.90;;
15393;SDS011;7795;47.986;11.868;2022-12-07T11:22:33;7.33;;;6.60;;
15393;SDS011;7795;47.986;11.868;2022-12-07T11:25:13;6.80;;;5.83;;
15393;SDS011;7795;47.986;11.868;2022-12-07T11:27:48;5.93;;;5.33;;
15393;SDS011;7795;47.986;11.868;2022-12-07T11:30:26;6.80;;;6.10;;
15393;SDS011;7795;47.986;11.868;2022-12-07T11:33:00;6.43;;;5.83;;
15393;SDS011;7795;47.986;11.868;2022-12-07T11:35:40;6.83;;;5.27;;
15393;SDS011;7795;47.986;11.868;2022-12-07T11:38:14;7.17;;;6.47;;
15393;SDS011;7795;47.986;11.868;2022-12-07T11:40:42;6.53;;;5.93;;
15393;SDS011;7795;47.986;11.868;2022-12-07T11:43:13;5.50;;;5.00;;
15393;SDS011;7795;47.986;11.868;2022-12-07T11:45:46;6.30;;;5.70;;
15393;SDS011;7795;47.986;11.868;2022-12-07T11:48:22;6.50;;;5.67;;
15393;SDS011;7795;47.986;11.868;2022-12-07T11:50:57;5.90;;;5.30;;
15393;SDS011;7795;47.986;11.868;2022-12-07T11:53:26;6.00;;;5.40;;
15393;SDS011;7795;47.986;11.868;2022-12-07T11:55:57;6.30;;;5.70;;
15393;SDS011;7795;47.986;11.868;2022-12-07T11:58:34;6.60;;;5.97;;
15393;SDS011;7795;47.986;11.868;2022-12-07T12:01:10;6.37;;;5.77;;
15393;SDS011;7795;47.986;11.868;2022-12-07T12:03:42;6.53;;;5.83;;
15393;SDS011;7795;47.986;11.868;2022-12-07T12:06:10;7.03;;;5.30;;
15393;SDS011;7795;47.986;11.868;2022-12-07T12:08:38;6.53;;;5.83;;
15393;SDS011;7795;47.986;11.868;2022-12-07T12:11:10;5.97;;;5.47;;
15393;SDS011;7795;47.986;11.868;2022-12-07T12:14:09;7.10;;;6.40;;
15393;SDS011;7795;47.986;11.868;2022-12-07T12:19:57;6.90;;;6.20;;
15393;SDS011;7795;47.986;11.868;2022-12-07T12:22:27;6.57;;;5.93;;
15393;SDS011;7795;47.986;11.868;2022-12-07T12:24:57;6.47;;;5.73;;
15393;SDS011;7795;47.986;11.868;2022-12-07T12:27:25;6.73;;;5.80;;
15393;SDS011;7795;47.986;11.868;2022-12-07T12:29:55;7.30;;;6.60;;
15393;SDS011;7795;47.986;11.868;2022-12-07T12:32:23;10.73;;;6.67;;
15393;SDS011;7795;47.986;11.868;2022-12-07T12:35:20;6.00;;;5.37;;
15393;SDS011;7795;47.986;11.868;2022-12-07T12:37:53;8.63;;;6.20;;
15393;SDS011;7795;47.986;11.868;2022-12-07T12:40:38;8.90;;;5.90;;
15393;SDS011;7795;47.986;11.868;2022-12-07T12:43:21;7.63;;;5.83;;
15393;SDS011;7795;47.986;11.868;2022-12-07T12:49:34;6.17;;;5.57;;
15393;SDS011;7795;47.986;11.868;2022-12-07T12:55:12;9.60;;;7.07;;
15393;SDS011;7795;47.986;11.868;2022-12-07T12:57:45;13.27;;;7.17;;
15393;SDS011;7795;47.986;11.868;2022-12-07T13:00:15;8.43;;;6.83;;
15393;SDS011;7795;47.986;11.868;2022-12-07T13:02:47;13.03;;;6.53;;
15393;SDS011;7795;47.986;11.868;2022-12-07T13:05:18;7.53;;;5.47;;
15393;SDS011;7795;47.986;11.868;2022-12-07T13:07:52;7.57;;;5.77;;
15393;SDS011;7795;47.986;11.868;2022-12-07T13:10:20;8.10;;;5.57;;
15393;SDS011;7795;47.986;11.868;2022-12-07T13:13:08;7.97;;;6.07;;
15393;SDS011;7795;47.986;11.868;2022-12-07T13:15:54;7.63;;;5.47;;
15393;SDS011;7795;47.986;11.868;2022-12-07T13:18:40;7.10;;;5.67;;
15393;SDS011;7795;47.986;11.868;2022-12-07T13:24:07;9.13;;;6.17;;
15393;SDS011;7795;47.986;11.868;2022-12-07T13:26:38;6.43;;;5.40;;
15393;SDS011;7795;47.986;11.868;2022-12-07T13:29:09;15.23;;;6.53;;
15393;SDS011;7795;47.986;11.868;2022-12-07T13:31:38;14.50;;;7.37;;
15393;SDS011;7795;47.986;11.868;2022-12-07T13:34:26;8.10;;;6.37;;
15393;SDS011;7795;47.986;11.868;2022-12-07T13:36:55;11.57;;;6.10;;
15393;SDS011;7795;47.986;11.868;2022-12-07T13:39:23;10.03;;;6.20;;
15393;SDS011;7795;47.986;11.868;2022-12-07T13:41:51;9.50;;;6.40;;
15393;SDS011;7795;47.986;11.868;2022-12-07T13:44:18;11.63;;;6.47;;
15393;SDS011;7795;47.986;11.868;2022-12-07T13:46:47;13.53;;;6.87;;
15393;SDS011;7795;47.986;11.868;2022-12-07T13:49:19;9.43;;;6.33;;
15393;SDS011;7795;47.986;11.868;2022-12-07T13:51:47;7.63;;;6.07;;
15393;SDS011;7795;47.986;11.868;2022-12-07T13:54:13;6.83;;;5.23;;
15393;SDS011;7795;47.986;11.868;2022-12-07T13:56:41;9.80;;;5.97;;
15393;SDS011;7795;47.986;11.868;2022-12-07T13:59:10;6.00;;;5.37;;
15393;SDS011;7795;47.986;11.868;2022-12-07T14:01:40;5.97;;;5.37;;
15393;SDS011;7795;47.986;11.868;2022-12-07T14:07:00;8.93;;;5.47;;
15393;SDS011;7795;47.986;11.868;2022-12-07T14:09:41;9.63;;;5.10;;
15393;SDS011;7795;47.986;11.868;2022-12-07T14:12:08;20.37;;;6.47;;
15393;SDS011;7795;47.986;11.868;2022-12-07T14:14:34;12.83;;;6.00;;
15393;SDS011;7795;47.986;11.868;2022-12-07T14:17:00;15.23;;;6.63;;
15393;SDS011;7795;47.986;11.868;2022-12-07T14:19:46;7.93;;;6.07;;
15393;SDS011;7795;47.986;11.868;2022-12-07T14:22:30;6.60;;;5.40;;
15393;SDS011;7795;47.986;11.868;2022-12-07T14:24:59;6.33;;;5.47;;
15393;SDS011;7795;47.986;11.868;2022-12-07T14:27:49;6.30;;;5.23;;
15393;SDS011;7795;47.986;11.868;2022-12-07T14:30:20;7.13;;;5.43;;
15393;SDS011;7795;47.986;11.868;2022-12-07T14:32:52;11.43;;;4.97;;
15393;SDS011;7795;47.986;11.868;2022-12-07T14:35:19;7.43;;;5.40;;
15393;SDS011;7795;47.986;11.868;2022-12-07T14:37:45;7.90;;;4.90;;
15393;SDS011;7795;47.986;11.868;2022-12-07T14:40:13;7.70;;;5.60;;
15393;SDS011;7795;47.986;11.868;2022-12-07T14:42:39;7.90;;;5.27;;
15393;SDS011;7795;47.986;11.868;2022-12-07T14:45:12;7.37;;;6.00;;
15393;SDS011;7795;47.986;11.868;2022-12-07T14:47:38;6.23;;;5.13;;
15393;SDS011;7795;47.986;11.868;2022-12-07T14:50:05;6.17;;;5.37;;
15393;SDS011;7795;47.986;11.868;2022-12-07T14:52:31;6.37;;;5.00;;
15393;SDS011;7795;47.986;11.868;2022-12-07T14:54:58;6.00;;;4.90;;
15393;SDS011;7795;47.986;11.868;2022-12-07T14:57:23;12.20;;;5.03;;
15393;SDS011;7795;47.986;11.868;2022-12-07T14:59:49;6.17;;;4.73;;
15393;SDS011;7795;47.986;11.868;2022-12-07T15:02:16;7.50;;;5.00;;
15393;SDS011;7795;47.986;11.868;2022-12-07T15:04:42;6.57;;;5.63;;
15393;SDS011;7795;47.986;11.868;2022-12-07T15:07:10;8.93;;;6.67;;
15393;SDS011;7795;47.986;11.868;2022-12-07T15:09:40;6.87;;;5.93;;
15393;SDS011;7795;47.986;11.868;2022-12-07T15:12:06;7.90;;;6.20;;
15393;SDS011;7795;47.986;11.868;2022-12-07T15:14:32;6.57;;;5.47;;